Time;durP1;ratioP1;P1;durP2;ratioP2;P2;SDS_P1;SDS_P2;PMS_P1;PMS_P2;Temp;Humidity;BMP_temperature;BMP_pressure;BME280_temperature;BME280_humidity;BME280_pressure;Samples;Min_cycle;Max_cycle;Signal;HPM_P1;HPM_P2
2022/03/31 00:00:43;;;;;;;8.18;1.70;;;5.10;99.90;;;;;;5029523;28;20056;-81
2022/03/31 00:03:14;;;;;;;5.80;1.70;;;5.00;99.90;;;;;;5015150;28;20076;-81
2022/03/31 00:05:41;;;;;;;5.32;1.50;;;5.00;99.90;;;;;;5029402;28;20046;-81
2022/03/31 00:08:18;;;;;;;7.20;1.85;;;5.10;99.90;;;;;;5013075;28;20131;-82
2022/03/31 00:10:47;;;;;;;6.30;1.60;;;5.00;99.90;;;;;;5029282;28;20507;-81
2022/03/31 00:13:15;;;;;;;6.53;1.60;;;5.00;99.90;;;;;;5030533;28;20073;-81
2022/03/31 00:15:41;;;;;;;8.40;1.75;;;5.00;99.90;;;;;;5033222;28;20403;-81
2022/03/31 00:18:09;;;;;;;8.10;1.80;;;5.00;99.90;;;;;;5017043;28;20042;-82
2022/03/31 00:34:03;;;;;;;6.10;1.50;;;5.00;99.90;;;;;;5032622;28;20555;-81
2022/03/31 00:36:29;;;;;;;5.13;1.33;;;5.00;99.90;;;;;;5032919;28;20037;-81
2022/03/31 00:41:39;;;;;;;6.80;1.48;;;4.90;99.90;;;;;;5032527;28;20159;-81
2022/03/31 00:44:07;;;;;;;6.50;1.48;;;4.90;99.90;;;;;;5032650;28;20406;-81
2022/03/31 00:46:32;;;;;;;5.63;1.42;;;4.90;99.90;;;;;;5032738;28;20044;-81
2022/03/31 00:48:59;;;;;;;6.40;2.05;;;4.90;99.90;;;;;;5032170;28;20038;-82
2022/03/31 00:51:24;;;;;;;5.53;1.38;;;4.80;99.90;;;;;;5032196;28;20144;-81
2022/03/31 00:53:51;;;;;;;6.18;1.40;;;4.80;99.90;;;;;;5032761;28;20136;-81
2022/03/31 00:56:18;;;;;;;5.85;1.58;;;4.70;99.90;;;;;;5032737;28;20044;-82
2022/03/31 00:58:45;;;;;;;5.13;1.35;;;4.70;99.90;;;;;;5032455;28;20077;-81
2022/03/31 01:01:14;;;;;;;6.57;1.38;;;4.70;99.90;;;;;;5031920;28;20072;-81
2022/03/31 01:03:40;;;;;;;8.73;1.52;;;4.70;99.90;;;;;;5028422;28;20045;-78
2022/03/31 01:06:06;;;;;;;5.60;1.35;;;4.60;99.90;;;;;;5039955;28;20453;-81
2022/03/31 01:08:33;;;;;;;5.80;1.40;;;4.60;99.90;;;;;;5015873;28;20479;-81
2022/03/31 01:10:58;;;;;;;5.18;1.30;;;4.50;99.90;;;;;;5032214;28;20037;-81
2022/03/31 01:13:24;;;;;;;5.18;1.20;;;4.50;99.90;;;;;;5030901;28;20516;-81
2022/03/31 01:15:50;;;;;;;6.07;1.40;;;4.50;99.90;;;;;;5031619;28;20423;-81
2022/03/31 01:18:16;;;;;;;6.78;1.42;;;4.50;99.90;;;;;;5031914;28;20072;-81
2022/03/31 01:20:42;;;;;;;7.43;2.50;;;4.40;99.90;;;;;;5031740;28;20073;-81
2022/03/31 01:23:17;;;;;;;5.50;1.35;;;4.40;99.90;;;;;;5014888;28;20056;-81
2022/03/31 01:25:43;;;;;;;6.65;1.63;;;4.40;99.90;;;;;;5031982;28;20037;-82
2022/03/31 01:28:09;;;;;;;6.03;1.40;;;4.40;99.90;;;;;;5031518;28;20041;-81
2022/03/31 01:30:36;;;;;;;5.88;1.40;;;4.30;99.90;;;;;;5030687;28;20056;-81
2022/03/31 01:33:02;;;;;;;5.18;1.73;;;4.30;99.90;;;;;;5031616;28;20717;-81
2022/03/31 01:35:27;;;;;;;7.38;1.73;;;4.30;99.90;;;;;;5031521;28;20041;-81
2022/03/31 01:37:53;;;;;;;7.00;2.17;;;4.30;99.90;;;;;;5031804;28;20045;-81
2022/03/31 01:40:19;;;;;;;5.00;1.80;;;4.30;99.90;;;;;;5031324;28;20042;-82
2022/03/31 01:42:45;;;;;;;7.32;2.05;;;4.30;99.90;;;;;;5031773;28;20077;-81
2022/03/31 01:45:14;;;;;;;7.28;2.20;;;4.30;99.90;;;;;;5031807;28;20375;-81
2022/03/31 01:47:41;;;;;;;6.97;1.88;;;4.20;99.90;;;;;;5015178;28;20495;-81
2022/03/31 01:50:10;;;;;;;7.55;2.30;;;4.20;99.90;;;;;;5030866;28;20076;-81
2022/03/31 01:52:40;;;;;;;8.20;2.13;;;4.20;99.90;;;;;;5014603;28;20038;-82
2022/03/31 01:55:07;;;;;;;9.25;2.70;;;4.20;99.90;;;;;;5031257;28;20542;-81
2022/03/31 01:57:33;;;;;;;8.90;2.50;;;4.20;99.90;;;;;;5031054;28;20124;-81
2022/03/31 02:00:02;;;;;;;10.18;2.72;;;4.20;99.90;;;;;;5031395;28;20067;-81
2022/03/31 02:02:30;;;;;;;10.15;2.55;;;4.20;99.90;;;;;;5031130;28;20498;-81
2022/03/31 02:04:56;;;;;;;9.27;2.80;;;4.20;99.90;;;;;;5031289;28;20049;-81
2022/03/31 02:07:22;;;;;;;9.05;2.75;;;4.30;99.90;;;;;;5031675;28;20049;-81
2022/03/31 02:09:47;;;;;;;9.05;2.92;;;4.20;99.90;;;;;;5030379;28;20034;-81
2022/03/31 02:12:13;;;;;;;8.65;3.17;;;4.30;99.90;;;;;;5031143;28;20521;-82
2022/03/31 02:14:41;;;;;;;9.35;3.33;;;4.30;99.90;;;;;;5030986;28;20035;-81
2022/03/31 02:17:08;;;;;;;8.85;3.33;;;4.30;99.90;;;;;;5030972;28;20266;-81
2022/03/31 02:19:35;;;;;;;8.13;3.65;;;4.20;99.90;;;;;;5030542;28;20049;-81
2022/03/31 02:22:00;;;;;;;7.75;3.38;;;4.20;99.90;;;;;;5030925;28;20044;-81
2022/03/31 02:24:26;;;;;;;9.65;3.85;;;4.20;99.90;;;;;;5030749;28;20041;-81
2022/03/31 02:26:52;;;;;;;8.40;4.25;;;4.20;99.90;;;;;;5030815;28;20041;-81
2022/03/31 02:29:19;;;;;;;10.55;4.43;;;4.20;99.90;;;;;;5030411;28;20041;-81
2022/03/31 02:31:46;;;;;;;9.57;3.95;;;4.20;99.90;;;;;;5029640;28;20418;-81
2022/03/31 02:34:13;;;;;;;9.60;3.60;;;4.20;99.90;;;;;;5030468;28;20044;-81
2022/03/31 02:36:40;;;;;;;9.30;3.80;;;4.20;99.90;;;;;;5013431;28;20083;-82
2022/03/31 02:39:06;;;;;;;8.73;3.80;;;4.20;99.90;;;;;;5013930;28;20045;-81
2022/03/31 02:41:32;;;;;;;9.18;3.95;;;4.20;99.90;;;;;;5030267;28;20084;-81
2022/03/31 02:43:58;;;;;;;10.35;3.67;;;4.30;99.90;;;;;;5014256;28;20045;-81
2022/03/31 02:46:28;;;;;;;10.20;4.78;;;4.30;99.90;;;;;;5030705;28;20463;-81
2022/03/31 02:48:54;;;;;;;9.18;4.28;;;4.30;99.90;;;;;;5013816;28;20037;-81
2022/03/31 02:51:21;;;;;;;7.65;3.38;;;4.30;99.90;;;;;;5029771;28;20053;-81
2022/03/31 02:56:32;;;;;;;8.45;3.35;;;4.30;99.90;;;;;;5030227;28;20041;-82
2022/03/31 02:58:58;;;;;;;9.15;3.60;;;4.30;99.90;;;;;;5013810;28;20077;-81
2022/03/31 03:01:23;;;;;;;7.97;3.63;;;4.30;99.90;;;;;;5029858;28;20087;-81
2022/03/31 03:03:51;;;;;;;8.95;3.67;;;4.30;99.90;;;;;;5030521;28;20069;-81
2022/03/31 03:06:20;;;;;;;8.40;4.45;;;4.30;99.90;;;;;;5029872;28;20044;-81
2022/03/31 03:08:46;;;;;;;10.45;3.70;;;4.30;99.90;;;;;;5030131;28;20051;-81
2022/03/31 03:11:12;;;;;;;8.32;3.72;;;4.30;99.90;;;;;;5029514;28;20041;-81
2022/03/31 03:13:38;;;;;;;8.05;3.70;;;4.30;99.90;;;;;;5013856;28;20056;-81
2022/03/31 03:16:08;;;;;;;9.90;4.20;;;4.30;99.90;;;;;;5029895;28;20045;-81
2022/03/31 03:18:37;;;;;;;9.85;5.22;;;4.30;99.90;;;;;;5029752;28;20045;-82
2022/03/31 03:21:04;;;;;;;9.15;4.25;;;4.30;99.90;;;;;;5029787;28;20120;-81
2022/03/31 03:23:34;;;;;;;8.95;4.57;;;4.30;99.90;;;;;;5030078;28;20041;-81
2022/03/31 03:26:03;;;;;;;9.25;4.53;;;4.30;99.90;;;;;;5030141;28;20056;-82
2022/03/31 03:28:30;;;;;;;9.25;4.47;;;4.30;99.90;;;;;;5030078;28;20080;-81
2022/03/31 03:30:56;;;;;;;10.38;5.38;;;4.30;99.90;;;;;;5011824;28;20091;-81
2022/03/31 03:33:23;;;;;;;9.13;4.50;;;4.30;99.90;;;;;;5029701;28;20037;-81
2022/03/31 03:35:49;;;;;;;10.70;4.95;;;4.30;99.90;;;;;;5029508;28;20419;-81
2022/03/31 03:38:15;;;;;;;9.07;5.10;;;4.30;99.90;;;;;;5030215;28;20095;-82
2022/03/31 03:40:41;;;;;;;8.95;4.90;;;4.30;99.90;;;;;;5029416;28;20470;-81
2022/03/31 03:43:07;;;;;;;9.80;5.05;;;4.30;99.90;;;;;;5029629;28;20118;-81
2022/03/31 03:45:32;;;;;;;8.75;5.47;;;4.30;99.90;;;;;;5029629;28;20081;-81
2022/03/31 03:47:59;;;;;;;8.68;4.75;;;4.40;99.90;;;;;;5032711;28;20090;-82
2022/03/31 03:50:25;;;;;;;9.57;5.00;;;4.30;99.90;;;;;;5033192;28;20049;-81
2022/03/31 03:52:52;;;;;;;9.90;6.00;;;4.30;99.90;;;;;;5033448;28;20037;-81
2022/03/31 03:55:18;;;;;;;8.65;5.38;;;4.30;99.90;;;;;;5033634;28;20041;-82
2022/03/31 03:57:44;;;;;;;10.13;5.50;;;4.30;99.90;;;;;;5033478;28;20045;-81
2022/03/31 04:00:10;;;;;;;11.27;6.00;;;4.30;99.90;;;;;;5033147;28;20034;-81
2022/03/31 04:02:37;;;;;;;9.65;5.88;;;4.30;99.90;;;;;;5016900;28;20091;-81
2022/03/31 04:05:03;;;;;;;9.45;6.22;;;4.30;99.90;;;;;;5033663;28;20095;-81
2022/03/31 04:07:28;;;;;;;10.05;6.13;;;4.30;99.90;;;;;;5016887;28;20033;-81
2022/03/31 04:09:54;;;;;;;11.15;6.38;;;4.30;99.90;;;;;;5016568;28;20048;-81
2022/03/31 04:12:19;;;;;;;10.63;6.13;;;4.30;99.90;;;;;;5033233;28;20049;-82
2022/03/31 04:14:45;;;;;;;10.93;6.88;;;4.30;99.90;;;;;;5033112;28;20072;-81
2022/03/31 04:17:11;;;;;;;11.80;6.00;;;4.20;99.90;;;;;;5016433;28;20084;-81
2022/03/31 04:19:37;;;;;;;11.27;6.20;;;4.30;99.90;;;;;;5032865;28;20078;-81
2022/03/31 04:22:02;;;;;;;10.65;6.60;;;4.20;99.90;;;;;;5033320;28;20033;-81
2022/03/31 04:24:28;;;;;;;10.55;6.88;;;4.20;99.90;;;;;;5033434;28;20076;-81
2022/03/31 04:26:54;;;;;;;10.07;6.32;;;4.20;99.90;;;;;;5016584;28;20119;-81
2022/03/31 04:29:19;;;;;;;10.98;7.30;;;4.20;99.90;;;;;;5032809;28;20049;-81
2022/03/31 04:31:45;;;;;;;11.27;7.00;;;4.20;99.90;;;;;;5015921;28;20052;-81
2022/03/31 04:34:15;;;;;;;10.82;6.93;;;4.20;99.90;;;;;;5016684;28;20041;-81
2022/03/31 04:36:41;;;;;;;11.13;7.15;;;4.10;99.90;;;;;;5032810;28;20037;-81
2022/03/31 04:39:06;;;;;;;11.85;6.93;;;4.20;99.90;;;;;;5032901;28;20502;-82
2022/03/31 04:41:32;;;;;;;10.43;6.75;;;4.20;99.90;;;;;;5016130;28;20048;-81
2022/03/31 04:43:58;;;;;;;11.05;7.32;;;4.20;99.90;;;;;;5016284;28;20049;-82
2022/03/31 04:46:24;;;;;;;10.90;6.82;;;4.20;99.90;;;;;;5016506;28;20037;-81
2022/03/31 04:48:50;;;;;;;11.55;7.05;;;4.20;99.90;;;;;;5032678;28;20581;-81
2022/03/31 04:51:15;;;;;;;10.73;7.00;;;4.20;99.90;;;;;;5015513;28;20418;-82
2022/03/31 04:53:41;;;;;;;10.30;6.38;;;4.20;99.90;;;;;;5016273;28;20037;-81
2022/03/31 04:56:07;;;;;;;10.43;6.78;;;4.20;99.90;;;;;;5032606;28;20124;-81
2022/03/31 04:58:32;;;;;;;11.27;6.93;;;4.20;99.90;;;;;;5015399;28;20049;-82
2022/03/31 05:00:58;;;;;;;10.10;6.85;;;4.20;99.90;;;;;;5015462;28;20044;-81
2022/03/31 05:03:23;;;;;;;10.27;6.70;;;4.20;99.90;;;;;;5032537;28;20490;-81
2022/03/31 05:05:49;;;;;;;10.23;6.43;;;4.20;99.90;;;;;;5032459;28;20045;-81
2022/03/31 05:08:15;;;;;;;10.18;6.60;;;4.20;99.90;;;;;;5032488;28;20037;-81
2022/03/31 05:10:42;;;;;;;9.65;6.28;;;4.20;99.90;;;;;;5015421;28;20573;-81
2022/03/31 05:13:07;;;;;;;10.68;6.38;;;4.20;99.90;;;;;;5015712;28;20149;-81
2022/03/31 05:15:33;;;;;;;11.98;7.38;;;4.10;99.90;;;;;;5031732;28;20573;-81
2022/03/31 05:17:59;;;;;;;10.07;6.53;;;4.20;99.90;;;;;;5032070;28;20460;-81
2022/03/31 05:20:25;;;;;;;10.98;6.75;;;4.20;99.90;;;;;;5031725;28;20132;-81
2022/03/31 05:22:51;;;;;;;9.68;6.55;;;4.20;99.90;;;;;;5031066;28;20041;-81
2022/03/31 05:25:16;;;;;;;9.40;5.82;;;4.20;99.90;;;;;;5032105;28;20107;-81
2022/03/31 05:27:44;;;;;;;9.75;6.22;;;4.20;99.90;;;;;;5015386;28;20091;-81
2022/03/31 05:30:11;;;;;;;10.18;6.63;;;4.20;99.90;;;;;;5031492;28;20128;-81
2022/03/31 05:32:37;;;;;;;9.85;6.65;;;4.20;99.90;;;;;;5031127;28;20045;-81
2022/03/31 05:35:03;;;;;;;9.93;6.35;;;4.20;99.90;;;;;;5031824;28;20037;-81
2022/03/31 05:37:28;;;;;;;8.93;6.10;;;4.20;99.90;;;;;;5032018;28;20095;-81
2022/03/31 05:39:54;;;;;;;10.05;6.72;;;4.20;99.90;;;;;;5031761;28;20041;-81
2022/03/31 05:42:19;;;;;;;10.25;6.57;;;4.20;99.90;;;;;;5031349;28;20045;-81
2022/03/31 05:44:45;;;;;;;9.52;6.13;;;4.20;99.90;;;;;;5031706;28;20045;-81
2022/03/31 05:47:10;;;;;;;9.38;6.38;;;4.20;99.90;;;;;;5031483;28;20050;-81
2022/03/31 05:49:36;;;;;;;9.90;7.13;;;4.20;99.90;;;;;;5031489;28;20090;-81
2022/03/31 05:52:02;;;;;;;10.18;6.82;;;4.20;99.90;;;;;;5031323;28;20167;-81
2022/03/31 05:54:28;;;;;;;9.73;6.78;;;4.20;99.90;;;;;;5031392;28;20041;-81
2022/03/31 05:56:54;;;;;;;9.95;6.93;;;4.20;99.90;;;;;;5031272;28;20061;-81
2022/03/31 05:59:19;;;;;;;10.52;6.90;;;4.10;99.90;;;;;;5031348;28;20499;-81
2022/03/31 06:01:45;;;;;;;9.10;6.10;;;4.10;99.90;;;;;;5031058;28;20045;-80
2022/03/31 06:04:10;;;;;;;10.23;7.20;;;4.10;99.90;;;;;;5031293;28;20049;-81
2022/03/31 06:06:36;;;;;;;10.02;7.30;;;4.10;99.90;;;;;;5031641;28;20037;-81
2022/03/31 06:09:02;;;;;;;10.73;7.15;;;4.10;99.90;;;;;;5014818;28;20494;-81
2022/03/31 06:11:27;;;;;;;10.27;7.60;;;4.20;99.90;;;;;;5029544;28;20065;-81
2022/03/31 06:13:53;;;;;;;10.25;7.22;;;4.10;99.90;;;;;;5031259;28;20040;-81
2022/03/31 06:16:19;;;;;;;10.32;7.50;;;4.20;99.90;;;;;;5030982;28;20041;-81
2022/03/31 06:18:45;;;;;;;9.90;7.10;;;4.10;99.90;;;;;;5031100;28;20045;-81
2022/03/31 06:21:11;;;;;;;10.20;7.00;;;4.20;99.90;;;;;;5014023;28;20041;-81
2022/03/31 06:23:37;;;;;;;11.05;8.02;;;4.20;99.90;;;;;;5031016;28;20414;-81
2022/03/31 06:26:03;;;;;;;11.10;7.95;;;4.20;99.90;;;;;;5031000;28;20073;-81
2022/03/31 06:28:31;;;;;;;10.70;7.75;;;4.20;99.90;;;;;;5014328;28;20045;-81
2022/03/31 06:30:56;;;;;;;10.85;7.80;;;4.20;99.90;;;;;;5029510;28;20059;-81
2022/03/31 06:33:23;;;;;;;11.45;7.85;;;4.30;99.90;;;;;;5030691;28;20487;-81
2022/03/31 06:35:49;;;;;;;11.07;8.23;;;4.20;99.90;;;;;;5014230;28;20037;-81
2022/03/31 06:38:15;;;;;;;12.43;8.30;;;4.30;99.90;;;;;;5030466;28;20087;-81
2022/03/31 06:40:41;;;;;;;11.80;8.80;;;4.30;99.90;;;;;;5025411;28;20392;-80
2022/03/31 06:43:07;;;;;;;12.05;8.68;;;4.20;99.90;;;;;;5022763;28;20107;-80
2022/03/31 06:45:34;;;;;;;10.63;7.82;;;4.20;99.90;;;;;;5012008;28;20048;-80
2022/03/31 06:48:01;;;;;;;12.10;8.77;;;4.20;99.90;;;;;;5030642;28;20052;-80
2022/03/31 06:50:32;;;;;;;12.27;9.07;;;4.30;99.90;;;;;;5030144;28;20048;-81
2022/03/31 06:52:58;;;;;;;12.55;8.98;;;4.30;99.90;;;;;;5013666;28;20076;-81
2022/03/31 06:55:24;;;;;;;13.75;9.77;;;4.30;99.90;;;;;;5030324;28;20525;-81
2022/03/31 06:57:49;;;;;;;13.07;9.73;;;4.30;99.90;;;;;;5013957;28;20029;-80
2022/03/31 07:00:15;;;;;;;14.60;10.43;;;4.20;99.90;;;;;;5030150;28;20529;-80
2022/03/31 07:02:41;;;;;;;13.43;9.55;;;4.30;99.90;;;;;;5030207;28;20033;-80
2022/03/31 07:05:07;;;;;;;12.45;9.52;;;4.30;99.90;;;;;;5030467;28;20116;-80
2022/03/31 07:07:32;;;;;;;13.65;10.13;;;4.30;99.90;;;;;;5030222;28;20038;-80
2022/03/31 07:10:00;;;;;;;14.27;10.57;;;4.30;99.90;;;;;;5029764;28;20098;-80
2022/03/31 07:12:26;;;;;;;13.68;10.27;;;4.30;99.90;;;;;;5013408;28;20491;-80
2022/03/31 07:14:51;;;;;;;14.35;10.90;;;4.30;99.90;;;;;;5030291;28;20065;-81
2022/03/31 07:17:17;;;;;;;14.77;11.18;;;4.30;99.90;;;;;;5013763;28;20045;-81
2022/03/31 07:19:42;;;;;;;13.85;10.90;;;4.30;99.90;;;;;;5027486;28;20175;-81
2022/03/31 07:22:08;;;;;;;14.18;10.75;;;4.30;99.90;;;;;;5029797;28;20156;-81
2022/03/31 07:24:34;;;;;;;13.60;10.60;;;4.40;99.90;;;;;;5029981;28;20384;-81
2022/03/31 07:26:59;;;;;;;14.45;11.55;;;4.40;99.90;;;;;;5013436;28;20041;-81
2022/03/31 07:29:25;;;;;;;14.40;10.98;;;4.40;99.90;;;;;;5029505;28;20148;-82
2022/03/31 07:31:51;;;;;;;15.13;10.23;;;4.40;99.90;;;;;;5029450;28;20124;-81
2022/03/31 07:34:17;;;;;;;13.50;10.27;;;4.40;99.90;;;;;;5029808;28;20406;-81
2022/03/31 07:36:42;;;;;;;13.38;10.40;;;4.50;99.90;;;;;;5029273;28;20044;-82
2022/03/31 07:39:08;;;;;;;14.40;11.85;;;4.50;99.90;;;;;;5029834;28;20045;-82
2022/03/31 07:41:34;;;;;;;13.95;10.70;;;4.50;99.90;;;;;;5029471;28;20059;-81
2022/03/31 07:43:59;;;;;;;13.43;10.23;;;4.50;99.90;;;;;;5030915;28;20049;-82
2022/03/31 07:46:25;;;;;;;13.27;10.80;;;4.50;99.90;;;;;;5029947;28;20388;-82
2022/03/31 07:48:50;;;;;;;14.15;10.85;;;4.50;99.90;;;;;;5030946;28;20129;-82
2022/03/31 07:51:16;;;;;;;13.90;10.57;;;4.50;99.90;;;;;;5030203;28;20112;-81
2022/03/31 07:53:41;;;;;;;12.90;10.25;;;4.50;99.90;;;;;;5029147;28;20111;-82
2022/03/31 07:56:08;;;;;;;15.00;10.93;;;4.50;99.90;;;;;;5013223;28;20590;-82
2022/03/31 07:58:34;;;;;;;14.40;11.10;;;4.50;99.90;;;;;;5027510;28;20038;-82
2022/03/31 08:00:59;;;;;;;16.33;12.05;;;4.50;99.90;;;;;;5028820;28;20511;-82
2022/03/31 08:03:25;;;;;;;14.48;11.52;;;4.50;99.90;;;;;;5029648;28;20499;-82
2022/03/31 08:05:51;;;;;;;16.13;12.68;;;4.50;99.90;;;;;;5029453;28;20522;-82
2022/03/31 08:08:18;;;;;;;15.52;11.48;;;4.50;99.90;;;;;;5029012;28;20045;-81
2022/03/31 08:10:43;;;;;;;16.63;12.70;;;4.50;99.90;;;;;;5029052;28;20046;-83
2022/03/31 08:13:09;;;;;;;14.95;12.20;;;4.60;99.90;;;;;;5026863;28;20124;-82
2022/03/31 08:15:36;;;;;;;17.30;13.52;;;4.60;99.90;;;;;;5012705;28;20064;-82
2022/03/31 08:18:02;;;;;;;15.57;11.38;;;4.60;99.90;;;;;;5029088;28;20048;-81
2022/03/31 08:20:28;;;;;;;16.95;12.90;;;4.60;99.90;;;;;;5012877;28;20038;-82
2022/03/31 08:22:53;;;;;;;17.92;12.60;;;4.60;99.90;;;;;;5026875;28;20045;-81
2022/03/31 08:25:20;;;;;;;17.75;13.00;;;4.70;99.90;;;;;;5028864;28;20422;-81
2022/03/31 08:27:46;;;;;;;16.70;13.50;;;4.70;99.90;;;;;;5029016;28;20045;-81
2022/03/31 08:30:16;;;;;;;18.33;14.63;;;4.70;99.90;;;;;;5012088;28;20038;-82
2022/03/31 08:32:43;;;;;;;17.15;13.38;;;4.80;99.90;;;;;;5028529;28;20163;-83
2022/03/31 08:35:10;;;;;;;17.90;13.02;;;4.80;99.90;;;;;;5031958;28;20086;-82
2022/03/31 08:37:36;;;;;;;19.25;13.98;;;4.80;99.90;;;;;;5015821;28;20037;-82
2022/03/31 08:40:03;;;;;;;15.38;12.10;;;4.80;99.90;;;;;;5015910;28;20045;-82
2022/03/31 08:42:30;;;;;;;17.35;13.13;;;4.80;99.90;;;;;;5032491;28;20069;-82
2022/03/31 08:44:57;;;;;;;16.17;12.95;;;4.80;99.90;;;;;;5016237;28;20043;-82
2022/03/31 08:47:26;;;;;;;16.05;11.90;;;4.90;99.90;;;;;;5034372;28;20048;-82
2022/03/31 08:49:53;;;;;;;15.98;11.60;;;4.90;99.90;;;;;;5051642;28;20071;-82
2022/03/31 08:52:19;;;;;;;14.52;10.82;;;4.90;99.90;;;;;;5052173;28;20047;-82
2022/03/31 08:54:45;;;;;;;17.30;11.93;;;4.90;99.90;;;;;;5035558;28;20123;-82
2022/03/31 08:57:10;;;;;;;17.35;11.68;;;4.90;99.90;;;;;;5051819;28;20065;-82
2022/03/31 08:59:36;;;;;;;15.18;10.73;;;4.90;99.90;;;;;;5051800;28;20094;-81
2022/03/31 09:02:02;;;;;;;14.93;11.23;;;5.00;99.90;;;;;;5052186;28;20051;-81
2022/03/31 09:04:28;;;;;;;13.82;11.00;;;5.00;99.90;;;;;;5051950;28;20045;-81
2022/03/31 09:07:20;;;;;;;14.13;10.73;;;5.00;99.90;;;;;;5035744;28;20037;-81
2022/03/31 09:09:48;;;;;;;16.27;11.93;;;5.00;99.90;;;;;;5031907;28;20503;-81
2022/03/31 09:12:14;;;;;;;15.43;11.35;;;5.00;99.90;;;;;;5040248;28;20033;-81
2022/03/31 09:14:39;;;;;;;14.48;10.93;;;5.00;99.90;;;;;;5032072;28;20033;-82
2022/03/31 09:17:13;;;;;;;13.10;10.35;;;5.00;99.90;;;;;;5031733;28;20041;-82
2022/03/31 09:19:39;;;;;;;12.80;9.45;;;5.00;99.90;;;;;;5031745;28;20030;-81
2022/03/31 09:22:06;;;;;;;11.18;7.30;;;5.00;99.90;;;;;;5031137;28;20095;-81
2022/03/31 09:24:32;;;;;;;10.07;6.65;;;5.00;99.90;;;;;;5014849;28;20056;-81
2022/03/31 09:26:59;;;;;;;9.07;5.88;;;5.00;99.90;;;;;;5015527;28;20494;-81
2022/03/31 09:29:30;;;;;;;8.43;4.93;;;5.00;99.90;;;;;;5030129;28;20045;-81
2022/03/31 09:32:10;;;;;;;8.10;4.75;;;5.00;99.90;;;;;;5030354;28;20098;-81
2022/03/31 09:34:40;;;;;;;7.53;4.15;;;5.00;99.90;;;;;;5015123;28;20034;-81
2022/03/31 09:37:06;;;;;;;8.18;4.60;;;4.90;99.90;;;;;;5031637;28;20037;-81
2022/03/31 09:39:32;;;;;;;7.70;4.70;;;4.90;99.90;;;;;;5031268;28;20041;-82
2022/03/31 09:41:58;;;;;;;9.20;5.88;;;4.90;99.90;;;;;;5031664;28;20107;-81
2022/03/31 09:44:23;;;;;;;8.52;5.43;;;4.90;99.90;;;;;;5027485;28;20495;-81
2022/03/31 09:46:51;;;;;;;7.40;4.40;;;4.90;99.90;;;;;;5031493;28;20037;-81
2022/03/31 09:49:19;;;;;;;7.65;4.50;;;5.00;99.90;;;;;;5031409;28;20048;-81
2022/03/31 09:51:50;;;;;;;7.93;4.75;;;4.90;99.90;;;;;;5030927;28;20034;-81
2022/03/31 09:54:17;;;;;;;8.15;4.63;;;4.90;99.90;;;;;;5031173;28;20037;-81
2022/03/31 09:56:44;;;;;;;8.45;5.05;;;4.90;99.90;;;;;;5014784;28;20034;-81
2022/03/31 09:59:12;;;;;;;7.70;4.25;;;4.80;99.90;;;;;;5014206;28;20041;-81
2022/03/31 10:01:39;;;;;;;8.20;4.60;;;4.80;99.90;;;;;;5030588;28;20469;-81
2022/03/31 10:04:06;;;;;;;7.30;4.00;;;4.70;99.90;;;;;;5030354;28;20506;-81
2022/03/31 10:06:37;;;;;;;8.70;4.63;;;4.70;99.90;;;;;;5030734;28;20088;-81
2022/03/31 10:09:05;;;;;;;6.80;3.40;;;4.70;99.90;;;;;;5030558;28;20530;-81
2022/03/31 10:11:32;;;;;;;7.05;3.70;;;4.70;99.90;;;;;;5014248;28;20049;-81
2022/03/31 10:14:15;;;;;;;7.75;3.70;;;4.60;99.90;;;;;;5014096;28;20034;-81
2022/03/31 10:16:56;;;;;;;6.80;3.10;;;4.50;99.90;;;;;;5030978;28;20080;-81
2022/03/31 10:19:29;;;;;;;8.68;3.80;;;4.50;99.90;;;;;;5030673;28;20052;-81
2022/03/31 10:22:09;;;;;;;7.85;3.83;;;4.50;99.90;;;;;;5013785;28;20432;-81
2022/03/31 10:24:41;;;;;;;7.85;3.92;;;4.40;99.90;;;;;;5030476;28;20045;-81
2022/03/31 10:27:28;;;;;;;6.70;3.17;;;4.40;99.90;;;;;;5029943;28;20038;-81
2022/03/31 10:29:54;;;;;;;6.70;3.38;;;4.30;99.90;;;;;;5013056;28;20046;-81
2022/03/31 10:32:24;;;;;;;6.35;3.13;;;4.30;99.90;;;;;;5013848;28;20044;-81
2022/03/31 10:34:51;;;;;;;6.68;3.13;;;4.30;99.90;;;;;;5030773;28;20044;-80
2022/03/31 10:37:38;;;;;;;7.15;3.30;;;4.20;99.90;;;;;;5030221;28;20033;-82
2022/03/31 10:40:10;;;;;;;8.88;4.43;;;4.20;99.90;;;;;;5012821;28;20041;-82
2022/03/31 10:42:37;;;;;;;7.15;3.28;;;4.20;99.90;;;;;;5029572;28;20077;-81
2022/03/31 10:45:07;;;;;;;7.00;3.03;;;4.10;99.90;;;;;;5029740;28;20384;-81
2022/03/31 10:47:34;;;;;;;6.60;2.95;;;4.10;99.90;;;;;;5030040;28;20094;-82
2022/03/31 10:50:01;;;;;;;6.15;2.97;;;4.00;99.90;;;;;;5029618;28;20041;-82
2022/03/31 10:52:28;;;;;;;6.97;3.05;;;4.00;99.90;;;;;;5029652;28;20095;-81
2022/03/31 10:55:08;;;;;;;7.35;3.38;;;3.90;99.90;;;;;;5029817;28;20494;-82
2022/03/31 10:57:44;;;;;;;7.80;4.10;;;3.90;99.90;;;;;;5012768;28;20048;-82
2022/03/31 11:00:17;;;;;;;7.15;3.55;;;3.90;99.90;;;;;;5029621;28;20084;-81
2022/03/31 11:02:45;;;;;;;6.10;2.83;;;3.90;99.90;;;;;;5029956;28;20049;-81
2022/03/31 11:05:11;;;;;;;6.60;3.00;;;3.80;99.90;;;;;;5029029;28;20072;-81
2022/03/31 11:07:37;;;;;;;8.07;3.83;;;3.80;99.90;;;;;;5012954;28;20473;-82
2022/03/31 11:10:12;;;;;;;6.00;2.88;;;3.90;99.90;;;;;;5029562;28;20048;-81
2022/03/31 11:12:38;;;;;;;6.50;3.03;;;3.90;99.90;;;;;;5029257;28;20041;-80
2022/03/31 11:15:09;;;;;;;7.00;3.50;;;3.90;99.90;;;;;;5029195;28;20033;-81
2022/03/31 11:17:37;;;;;;;6.90;3.63;;;4.00;99.90;;;;;;5030160;28;20088;-81
2022/03/31 11:20:13;;;;;;;6.82;3.30;;;4.00;99.90;;;;;;5029462;28;20041;-81
2022/03/31 11:22:44;;;;;;;7.28;3.65;;;4.10;99.90;;;;;;5030049;28;20050;-81
2022/03/31 11:25:11;;;;;;;7.72;3.88;;;4.10;99.90;;;;;;5013681;28;20053;-81
2022/03/31 11:27:39;;;;;;;7.65;3.83;;;4.20;99.90;;;;;;5030216;28;20071;-81
2022/03/31 11:30:09;;;;;;;7.40;3.80;;;4.20;99.90;;;;;;5029534;28;20510;-81
2022/03/31 11:32:36;;;;;;;8.70;4.75;;;4.20;99.90;;;;;;5028657;28;20553;-81
2022/03/31 11:35:11;;;;;;;8.40;5.10;;;4.20;99.90;;;;;;5010994;28;20045;-81
2022/03/31 11:37:53;;;;;;;7.63;4.43;;;4.30;99.90;;;;;;5012720;28;20041;-81
2022/03/31 11:40:25;;;;;;;8.40;4.93;;;4.40;99.90;;;;;;5028695;28;20048;-80
2022/03/31 11:42:53;;;;;;;8.25;4.95;;;4.40;99.90;;;;;;5029330;28;20057;-81
2022/03/31 11:45:27;;;;;;;7.93;4.43;;;4.40;99.90;;;;;;5029320;28;20048;-80
2022/03/31 11:48:11;;;;;;;8.70;4.50;;;4.40;99.90;;;;;;5024866;28;20494;-79
2022/03/31 11:50:39;;;;;;;8.57;5.25;;;4.50;99.90;;;;;;5013499;28;20049;-80
2022/03/31 11:53:24;;;;;;;8.75;5.35;;;4.50;99.90;;;;;;5028983;28;20710;-81
2022/03/31 11:56:06;;;;;;;9.07;5.88;;;4.50;99.90;;;;;;5013085;28;20041;-80
2022/03/31 11:58:49;;;;;;;8.95;5.78;;;4.50;99.90;;;;;;5012908;28;20045;-80
2022/03/31 12:01:17;;;;;;;;;;;4.50;99.90;;;;;;5012952;28;20045;-80
2022/03/31 12:03:44;;;;;;;9.23;6.10;;;4.60;99.90;;;;;;5029275;28;20349;-81
2022/03/31 12:06:13;;;;;;;10.95;6.50;;;4.50;99.90;;;;;;5029737;28;20487;-82
2022/03/31 12:08:39;;;;;;;10.93;7.30;;;4.60;99.90;;;;;;5029478;28;20042;-81
2022/03/31 12:11:06;;;;;;;10.35;7.05;;;4.60;99.90;;;;;;5032787;28;20128;-81
2022/03/31 12:13:31;;;;;;;10.90;7.57;;;4.60;99.90;;;;;;5032504;28;20029;-80
2022/03/31 12:16:15;;;;;;;11.88;8.70;;;4.60;99.90;;;;;;5033259;28;20048;-81
2022/03/31 12:18:42;;;;;;;11.20;7.82;;;4.60;99.90;;;;;;5032931;28;20590;-81
2022/03/31 12:21:08;;;;;;;12.75;9.07;;;4.60;99.90;;;;;;5032719;28;20414;-81
2022/03/31 12:23:44;;;;;;;12.02;9.32;;;4.60;99.90;;;;;;5032851;28;20041;-81
2022/03/31 12:26:18;;;;;;;14.82;10.85;;;4.60;99.90;;;;;;5032908;28;20041;-81
2022/03/31 12:28:44;;;;;;;15.27;10.25;;;4.60;99.90;;;;;;5016419;28;20042;-81
2022/03/31 12:31:23;;;;;;;14.40;10.65;;;4.60;99.90;;;;;;5032523;28;20037;-81
2022/03/31 12:33:53;;;;;;;15.55;12.05;;;4.60;99.90;;;;;;5032800;28;20037;-82
2022/03/31 12:36:31;;;;;;;15.65;11.88;;;4.60;99.90;;;;;;5033065;28;20042;-81
2022/03/31 12:38:57;;;;;;;15.75;11.95;;;4.70;99.90;;;;;;5032488;28;20045;-81
2022/03/31 12:41:36;;;;;;;16.42;12.80;;;4.70;99.90;;;;;;5032472;28;20052;-80
2022/03/31 12:44:20;;;;;;;18.40;13.80;;;4.70;99.90;;;;;;5032870;28;20038;-82
2022/03/31 12:46:58;;;;;;;19.92;15.02;;;4.70;99.90;;;;;;5032904;28;20052;-81
2022/03/31 12:49:31;;;;;;;20.92;16.23;;;4.80;99.90;;;;;;5032416;28;20049;-81
2022/03/31 12:51:58;;;;;;;20.63;14.57;;;4.80;99.90;;;;;;5032627;28;20403;-80
2022/03/31 12:54:36;;;;;;;21.80;16.73;;;4.80;99.90;;;;;;5033088;28;20076;-80
2022/03/31 12:57:22;;;;;;;23.17;18.35;;;4.90;99.90;;;;;;5032840;28;20449;-81
2022/03/31 13:00:06;;;;;;;24.42;19.00;;;4.90;99.90;;;;;;5015835;28;20077;-81
2022/03/31 13:02:43;;;;;;;27.80;21.25;;;4.90;99.90;;;;;;5032552;28;20076;-81
2022/03/31 13:05:09;;;;;;;29.33;22.15;;;5.00;99.90;;;;;;5032816;28;20037;-81
2022/03/31 13:07:35;;;;;;;29.48;21.20;;;5.00;99.90;;;;;;5032728;28;20041;-81
2022/03/31 13:10:06;;;;;;;31.55;23.65;;;5.10;99.90;;;;;;5032341;28;20412;-81
2022/03/31 13:12:32;;;;;;;32.33;23.60;;;5.10;99.90;;;;;;5032311;28;20052;-81